sensor_id;sensor_type;location;lat;lon;timestamp;temperature;humidity
39779;DHT22;25454;49.878;8.618;2022-09-20T00:04:12;11.00;99.90
39779;DHT22;25454;49.878;8.618;2022-09-20T00:09:13;11.00;99.90
39779;DHT22;25454;49.878;8.618;2022-09-20T00:14:14;11.10;99.90
39779;DHT22;25454;49.878;8.618;2022-09-20T00:19:19;11.20;99.90
39779;DHT22;25454;49.878;8.618;2022-09-20T00:24:21;11.20;99.90
39779;DHT22;25454;49.878;8.618;2022-09-20T00:29:22;11.10;99.90
39779;DHT22;25454;49.878;8.618;2022-09-20T00:34:22;11.10;99.90
39779;DHT22;25454;49.878;8.618;2022-09-20T00:39:41;11.20;99.90
39779;DHT22;25454;49.878;8.618;2022-09-20T00:50:29;11.10;99.90
39779;DHT22;25454;49.878;8.618;2022-09-20T00:55:34;11.00;99.90
39779;DHT22;25454;49.878;8.618;2022-09-20T01:00:37;10.90;99.90
39779;DHT22;25454;49.878;8.618;2022-09-20T01:05:39;10.80;99.90
39779;DHT22;25454;49.878;8.618;2022-09-20T01:10:40;10.80;99.90
39779;DHT22;25454;49.878;8.618;2022-09-20T01:15:46;10.80;99.90
39779;DHT22;25454;49.878;8.618;2022-09-20T01:20:48;10.80;99.90
39779;DHT22;25454;49.878;8.618;2022-09-20T01:31:32;10.80;99.90
39779;DHT22;25454;49.878;8.618;2022-09-20T01:42:11;10.50;99.90
39779;DHT22;25454;49.878;8.618;2022-09-20T01:47:26;10.40;99.90
39779;DHT22;25454;49.878;8.618;2022-09-20T01:52:49;10.20;99.90
39779;DHT22;25454;49.878;8.618;2022-09-20T02:20:37;9.80;99.90
39779;DHT22;25454;49.878;8.618;2022-09-20T02:25:35;9.70;99.90
39779;DHT22;25454;49.878;8.618;2022-09-20T03:13:42;9.00;99.90
39779;DHT22;25454;49.878;8.618;2022-09-20T03:29:31;8.90;99.90
39779;DHT22;25454;49.878;8.618;2022-09-20T03:50:59;8.80;99.90
39779;DHT22;25454;49.878;8.618;2022-09-20T04:13:21;8.60;99.90
39779;DHT22;25454;49.878;8.618;2022-09-20T04:18:50;8.60;99.90
39779;DHT22;25454;49.878;8.618;2022-09-20T04:35:24;8.60;99.90
39779;DHT22;25454;49.878;8.618;2022-09-20T04:46:01;8.60;99.90
39779;DHT22;25454;49.878;8.618;2022-09-20T05:02:27;8.50;99.90
39779;DHT22;25454;49.878;8.618;2022-09-20T05:08:13;8.50;99.90
39779;DHT22;25454;49.878;8.618;2022-09-20T05:34:40;8.80;99.90
39779;DHT22;25454;49.878;8.618;2022-09-20T05:40:23;8.80;99.90
39779;DHT22;25454;49.878;8.618;2022-09-20T05:45:49;8.80;99.90
39779;DHT22;25454;49.878;8.618;2022-09-20T06:08:18;9.60;99.90
39779;DHT22;25454;49.878;8.618;2022-09-20T06:13:40;10.10;99.90
39779;DHT22;25454;49.878;8.618;2022-09-20T06:23:51;10.70;99.90
39779;DHT22;25454;49.878;8.618;2022-09-20T06:29:02;10.90;99.90
39779;DHT22;25454;49.878;8.618;2022-09-20T06:34:09;11.10;99.90
39779;DHT22;25454;49.878;8.618;2022-09-20T06:45:04;11.60;99.90
39779;DHT22;25454;49.878;8.618;2022-09-20T06:50:05;11.90;99.90
39779;DHT22;25454;49.878;8.618;2022-09-20T06:55:09;12.10;99.90
39779;DHT22;25454;49.878;8.618;2022-09-20T07:00:14;12.30;99.90
39779;DHT22;25454;49.878;8.618;2022-09-20T07:05:16;12.60;99.90
39779;DHT22;25454;49.878;8.618;2022-09-20T07:10:17;12.90;99.90
39779;DHT22;25454;49.878;8.618;2022-09-20T07:15:17;13.30;99.90
39779;DHT22;25454;49.878;8.618;2022-09-20T07:20:22;13.70;99.90
39779;DHT22;25454;49.878;8.618;2022-09-20T07:25:22;14.20;99.90
39779;DHT22;25454;49.878;8.618;2022-09-20T07:30:26;14.80;99.90
39779;DHT22;25454;49.878;8.618;2022-09-20T07:35:27;15.40;99.90
39779;DHT22;25454;49.878;8.618;2022-09-20T07:40:27;15.70;99.90
39779;DHT22;25454;49.878;8.618;2022-09-20T07:45:28;16.50;99.90
39779;DHT22;25454;49.878;8.618;2022-09-20T07:50:31;18.40;99.90
39779;DHT22;25454;49.878;8.618;2022-09-20T07:55:32;23.00;99.90
39779;DHT22;25454;49.878;8.618;2022-09-20T08:00:34;25.30;87.20
39779;DHT22;25454;49.878;8.618;2022-09-20T08:05:40;26.10;74.30
39779;DHT22;25454;49.878;8.618;2022-09-20T08:10:41;28.30;64.80
39779;DHT22;25454;49.878;8.618;2022-09-20T08:15:42;29.50;56.00
39779;DHT22;25454;49.878;8.618;2022-09-20T08:20:43;30.80;51.40
39779;DHT22;25454;49.878;8.618;2022-09-20T08:25:43;32.10;47.20
39779;DHT22;25454;49.878;8.618;2022-09-20T08:30:44;32.40;44.50
39779;DHT22;25454;49.878;8.618;2022-09-20T08:35:48;29.40;47.90
39779;DHT22;25454;49.878;8.618;2022-09-20T08:40:49;27.00;52.00
39779;DHT22;25454;49.878;8.618;2022-09-20T08:45:49;24.30;57.20
39779;DHT22;25454;49.878;8.618;2022-09-20T08:50:50;22.00;65.00
39779;DHT22;25454;49.878;8.618;2022-09-20T08:55:51;20.60;70.80
39779;DHT22;25454;49.878;8.618;2022-09-20T09:00:52;19.90;75.80
39779;DHT22;25454;49.878;8.618;2022-09-20T09:05:55;19.60;78.60
39779;DHT22;25454;49.878;8.618;2022-09-20T09:11:02;20.60;78.90
39779;DHT22;25454;49.878;8.618;2022-09-20T09:16:11;24.70;62.20
39779;DHT22;25454;49.878;8.618;2022-09-20T09:21:25;27.80;55.90
39779;DHT22;25454;49.878;8.618;2022-09-20T09:26:27;29.60;48.10
39779;DHT22;25454;49.878;8.618;2022-09-20T09:31:28;29.40;46.50
39779;DHT22;25454;49.878;8.618;2022-09-20T09:36:31;29.70;43.40
39779;DHT22;25454;49.878;8.618;2022-09-20T09:41:32;31.60;40.10
39779;DHT22;25454;49.878;8.618;2022-09-20T09:46:37;30.60;38.20
39779;DHT22;25454;49.878;8.618;2022-09-20T09:51:39;27.50;45.50
39779;DHT22;25454;49.878;8.618;2022-09-20T09:57:02;28.90;43.00
39779;DHT22;25454;49.878;8.618;2022-09-20T10:02:13;30.90;40.10
39779;DHT22;25454;49.878;8.618;2022-09-20T10:07:26;32.70;36.20
39779;DHT22;25454;49.878;8.618;2022-09-20T10:12:46;33.90;35.10
39779;DHT22;25454;49.878;8.618;2022-09-20T10:18:13;35.60;31.70
39779;DHT22;25454;49.878;8.618;2022-09-20T10:29:04;31.20;35.60
39779;DHT22;25454;49.878;8.618;2022-09-20T10:34:29;28.00;39.90
39779;DHT22;25454;49.878;8.618;2022-09-20T10:39:37;24.80;46.90
39779;DHT22;25454;49.878;8.618;2022-09-20T10:50:50;21.60;55.70
39779;DHT22;25454;49.878;8.618;2022-09-20T11:01:41;20.90;59.80
39779;DHT22;25454;49.878;8.618;2022-09-20T11:07:00;20.80;61.70
39779;DHT22;25454;49.878;8.618;2022-09-20T11:12:16;20.90;62.90
39779;DHT22;25454;49.878;8.618;2022-09-20T11:17:31;24.50;54.80
39779;DHT22;25454;49.878;8.618;2022-09-20T11:28:25;22.20;57.20
39779;DHT22;25454;49.878;8.618;2022-09-20T11:33:31;21.00;61.20
39779;DHT22;25454;49.878;8.618;2022-09-20T11:38:56;20.40;62.00
39779;DHT22;25454;49.878;8.618;2022-09-20T11:44:09;19.80;63.10
39779;DHT22;25454;49.878;8.618;2022-09-20T11:59:48;18.90;65.00
39779;DHT22;25454;49.878;8.618;2022-09-20T12:04:50;19.00;66.50
39779;DHT22;25454;49.878;8.618;2022-09-20T12:09:58;19.70;62.30
39779;DHT22;25454;49.878;8.618;2022-09-20T12:15:03;19.90;58.60
39779;DHT22;25454;49.878;8.618;2022-09-20T12:25:37;20.10;61.40
39779;DHT22;25454;49.878;8.618;2022-09-20T12:30:41;19.80;60.80
39779;DHT22;25454;49.878;8.618;2022-09-20T12:35:57;19.80;61.60
39779;DHT22;25454;49.878;8.618;2022-09-20T12:40:59;20.10;59.40
39779;DHT22;25454;49.878;8.618;2022-09-20T12:46:00;20.40;59.30
39779;DHT22;25454;49.878;8.618;2022-09-20T12:51:20;20.30;58.00
39779;DHT22;25454;49.878;8.618;2022-09-20T12:56:42;19.80;59.00
39779;DHT22;25454;49.878;8.618;2022-09-20T13:01:45;19.50;59.10
39779;DHT22;25454;49.878;8.618;2022-09-20T13:06:47;19.40;59.60
39779;DHT22;25454;49.878;8.618;2022-09-20T13:12:00;19.10;60.90
39779;DHT22;25454;49.878;8.618;2022-09-20T13:17:05;19.20;58.90
39779;DHT22;25454;49.878;8.618;2022-09-20T13:22:37;19.40;57.60
39779;DHT22;25454;49.878;8.618;2022-09-20T13:28:04;19.40;60.30
39779;DHT22;25454;49.878;8.618;2022-09-20T13:33:24;19.70;61.70
39779;DHT22;25454;49.878;8.618;2022-09-20T13:38:27;19.80;62.40
39779;DHT22;25454;49.878;8.618;2022-09-20T13:43:40;19.80;64.20
39779;DHT22;25454;49.878;8.618;2022-09-20T13:48:45;19.60;63.50
39779;DHT22;25454;49.878;8.618;2022-09-20T13:53:46;19.00;62.20
39779;DHT22;25454;49.878;8.618;2022-09-20T13:58:47;18.00;73.60
39779;DHT22;25454;49.878;8.618;2022-09-20T14:03:49;17.40;79.30
39779;DHT22;25454;49.878;8.618;2022-09-20T14:08:50;17.40;79.70
39779;DHT22;25454;49.878;8.618;2022-09-20T14:13:54;17.60;77.00
39779;DHT22;25454;49.878;8.618;2022-09-20T14:18:54;17.90;79.20
39779;DHT22;25454;49.878;8.618;2022-09-20T14:23:59;18.10;77.90
39779;DHT22;25454;49.878;8.618;2022-09-20T14:29:39;17.80;74.70
39779;DHT22;25454;49.878;8.618;2022-09-20T14:34:40;17.40;74.90
39779;DHT22;25454;49.878;8.618;2022-09-20T14:39:59;17.30;76.70
39779;DHT22;25454;49.878;8.618;2022-09-20T14:45:03;17.20;76.00
39779;DHT22;25454;49.878;8.618;2022-09-20T14:50:37;17.10;76.50
39779;DHT22;25454;49.878;8.618;2022-09-20T14:55:55;17.20;77.30
39779;DHT22;25454;49.878;8.618;2022-09-20T15:01:00;17.10;77.60
39779;DHT22;25454;49.878;8.618;2022-09-20T15:06:04;17.00;77.30
39779;DHT22;25454;49.878;8.618;2022-09-20T15:11:05;16.80;78.10
39779;DHT22;25454;49.878;8.618;2022-09-20T15:16:06;16.70;78.70
39779;DHT22;25454;49.878;8.618;2022-09-20T15:21:08;16.70;78.40
39779;DHT22;25454;49.878;8.618;2022-09-20T15:26:11;16.70;79.00
39779;DHT22;25454;49.878;8.618;2022-09-20T15:31:12;16.60;77.90
39779;DHT22;25454;49.878;8.618;2022-09-20T15:36:14;16.70;76.70
39779;DHT22;25454;49.878;8.618;2022-09-20T15:41:15;16.70;75.70
39779;DHT22;25454;49.878;8.618;2022-09-20T15:46:18;16.80;74.60
39779;DHT22;25454;49.878;8.618;2022-09-20T15:51:19;16.90;74.80
39779;DHT22;25454;49.878;8.618;2022-09-20T16:01:21;16.60;76.60
39779;DHT22;25454;49.878;8.618;2022-09-20T16:06:22;16.50;75.90
39779;DHT22;25454;49.878;8.618;2022-09-20T16:11:23;16.30;76.60
39779;DHT22;25454;49.878;8.618;2022-09-20T16:16:25;16.20;77.60
39779;DHT22;25454;49.878;8.618;2022-09-20T16:21:27;16.10;77.80
39779;DHT22;25454;49.878;8.618;2022-09-20T16:26:29;16.00;79.00
39779;DHT22;25454;49.878;8.618;2022-09-20T16:31:41;16.00;79.60
39779;DHT22;25454;49.878;8.618;2022-09-20T16:36:42;15.80;80.50
39779;DHT22;25454;49.878;8.618;2022-09-20T16:41:47;15.50;80.60
39779;DHT22;25454;49.878;8.618;2022-09-20T16:46:48;15.30;81.50
39779;DHT22;25454;49.878;8.618;2022-09-20T16:51:51;15.10;82.70
39779;DHT22;25454;49.878;8.618;2022-09-20T16:56:52;14.90;83.70
39779;DHT22;25454;49.878;8.618;2022-09-20T17:01:52;14.70;84.80
39779;DHT22;25454;49.878;8.618;2022-09-20T17:06:53;14.50;86.30
39779;DHT22;25454;49.878;8.618;2022-09-20T17:11:54;14.40;88.40
39779;DHT22;25454;49.878;8.618;2022-09-20T17:16:55;14.20;90.00
39779;DHT22;25454;49.878;8.618;2022-09-20T17:21:55;14.00;90.40
39779;DHT22;25454;49.878;8.618;2022-09-20T17:26:57;13.90;91.00
39779;DHT22;25454;49.878;8.618;2022-09-20T17:32:04;13.70;92.00
39779;DHT22;25454;49.878;8.618;2022-09-20T17:37:04;13.60;93.00
39779;DHT22;25454;49.878;8.618;2022-09-20T17:42:05;13.50;94.20
39779;DHT22;25454;49.878;8.618;2022-09-20T17:47:06;13.40;95.60
39779;DHT22;25454;49.878;8.618;2022-09-20T17:52:08;13.30;97.50
39779;DHT22;25454;49.878;8.618;2022-09-20T17:57:11;13.20;99.80
39779;DHT22;25454;49.878;8.618;2022-09-20T18:02:15;13.10;99.90
39779;DHT22;25454;49.878;8.618;2022-09-20T18:07:16;13.10;99.90
39779;DHT22;25454;49.878;8.618;2022-09-20T18:12:16;13.00;99.90
39779;DHT22;25454;49.878;8.618;2022-09-20T18:17:17;12.80;99.90
39779;DHT22;25454;49.878;8.618;2022-09-20T18:22:19;12.80;99.90
39779;DHT22;25454;49.878;8.618;2022-09-20T18:27:20;12.80;99.90
39779;DHT22;25454;49.878;8.618;2022-09-20T18:32:21;12.80;99.90
39779;DHT22;25454;49.878;8.618;2022-09-20T18:37:23;12.90;99.90
39779;DHT22;25454;49.878;8.618;2022-09-20T18:42:24;13.00;99.90
39779;DHT22;25454;49.878;8.618;2022-09-20T18:47:25;13.10;99.90
39779;DHT22;25454;49.878;8.618;2022-09-20T18:52:26;13.20;99.90
39779;DHT22;25454;49.878;8.618;2022-09-20T18:57:26;13.20;99.90
39779;DHT22;25454;49.878;8.618;2022-09-20T19:08:07;13.30;99.90
39779;DHT22;25454;49.878;8.618;2022-09-20T19:24:27;13.10;99.90
39779;DHT22;25454;49.878;8.618;2022-09-20T19:29:31;13.20;99.90
39779;DHT22;25454;49.878;8.618;2022-09-20T19:34:32;13.20;99.90
39779;DHT22;25454;49.878;8.618;2022-09-20T19:39:51;13.20;99.90
39779;DHT22;25454;49.878;8.618;2022-09-20T19:50:37;13.10;99.90
39779;DHT22;25454;49.878;8.618;2022-09-20T19:55:39;13.10;99.90
39779;DHT22;25454;49.878;8.618;2022-09-20T20:00:49;13.00;99.90
39779;DHT22;25454;49.878;8.618;2022-09-20T20:06:02;13.00;99.90
39779;DHT22;25454;49.878;8.618;2022-09-20T20:11:08;12.90;99.90
39779;DHT22;25454;49.878;8.618;2022-09-20T20:16:22;12.90;99.90
39779;DHT22;25454;49.878;8.618;2022-09-20T20:21:32;12.80;99.90
39779;DHT22;25454;49.878;8.618;2022-09-20T20:26:36;12.60;99.90
39779;DHT22;25454;49.878;8.618;2022-09-20T20:31:37;12.60;99.90
39779;DHT22;25454;49.878;8.618;2022-09-20T20:36:37;12.50;99.90
39779;DHT22;25454;49.878;8.618;2022-09-20T20:41:38;12.60;99.90
39779;DHT22;25454;49.878;8.618;2022-09-20T20:46:40;12.50;99.90
39779;DHT22;25454;49.878;8.618;2022-09-20T20:51:40;12.50;99.90
39779;DHT22;25454;49.878;8.618;2022-09-20T20:56:41;12.40;99.90
39779;DHT22;25454;49.878;8.618;2022-09-20T21:01:42;12.40;99.90
39779;DHT22;25454;49.878;8.618;2022-09-20T21:06:45;12.30;99.90
39779;DHT22;25454;49.878;8.618;2022-09-20T21:11:45;12.20;99.90
39779;DHT22;25454;49.878;8.618;2022-09-20T21:16:50;12.10;99.90
39779;DHT22;25454;49.878;8.618;2022-09-20T21:21:51;12.00;99.90
39779;DHT22;25454;49.878;8.618;2022-09-20T21:26:51;11.90;99.90
39779;DHT22;25454;49.878;8.618;2022-09-20T21:31:52;11.70;99.90
39779;DHT22;25454;49.878;8.618;2022-09-20T21:36:53;11.50;99.90
39779;DHT22;25454;49.878;8.618;2022-09-20T21:41:53;11.30;99.90
39779;DHT22;25454;49.878;8.618;2022-09-20T21:46:55;11.20;99.90
39779;DHT22;25454;49.878;8.618;2022-09-20T21:51:55;11.10;99.90
39779;DHT22;25454;49.878;8.618;2022-09-20T21:56:56;10.90;99.90
39779;DHT22;25454;49.878;8.618;2022-09-20T22:01:58;10.80;99.90
39779;DHT22;25454;49.878;8.618;2022-09-20T22:06:59;10.70;99.90
39779;DHT22;25454;49.878;8.618;2022-09-20T22:12:03;10.60;99.90
39779;DHT22;25454;49.878;8.618;2022-09-20T22:17:03;10.50;99.90
39779;DHT22;25454;49.878;8.618;2022-09-20T22:22:04;10.40;99.90
39779;DHT22;25454;49.878;8.618;2022-09-20T22:27:05;10.40;99.90
39779;DHT22;25454;49.878;8.618;2022-09-20T22:32:05;10.30;99.90
39779;DHT22;25454;49.878;8.618;2022-09-20T22:37:06;10.20;99.90
39779;DHT22;25454;49.878;8.618;2022-09-20T22:42:06;10.20;99.90
39779;DHT22;25454;49.878;8.618;2022-09-20T22:47:10;10.10;99.90
39779;DHT22;25454;49.878;8.618;2022-09-20T22:52:13;10.00;99.90
39779;DHT22;25454;49.878;8.618;2022-09-20T22:57:14;10.00;99.90
39779;DHT22;25454;49.878;8.618;2022-09-20T23:02:15;10.00;99.90
39779;DHT22;25454;49.878;8.618;2022-09-20T23:07:15;9.90;99.90
39779;DHT22;25454;49.878;8.618;2022-09-20T23:12:16;9.90;99.90
39779;DHT22;25454;49.878;8.618;2022-09-20T23:17:16;9.80;99.90
39779;DHT22;25454;49.878;8.618;2022-09-20T23:22:17;9.80;99.90
39779;DHT22;25454;49.878;8.618;2022-09-20T23:27:17;9.70;99.90
39779;DHT22;25454;49.878;8.618;2022-09-20T23:32:21;9.70;99.90
39779;DHT22;25454;49.878;8.618;2022-09-20T23:37:22;9.70;99.90
39779;DHT22;25454;49.878;8.618;2022-09-20T23:42:22;9.60;99.90
39779;DHT22;25454;49.878;8.618;2022-09-20T23:47:23;9.50;99.90
39779;DHT22;25454;49.878;8.618;2022-09-20T23:52:24;9.50;99.90
39779;DHT22;25454;49.878;8.618;2022-09-20T23:57:30;9.50;99.90
